Frederick, MD

7:46 AM EST on February 28, 2015 (GMT -0500)
APRSWXNET Frederick MA US | Change Station
CLOSE
Current Station
Personal Weather Station
Location: New Market, MD
Elevation: 515 ft
Nearby Weather Stations

Elev 515 ft 39.44 °N, 77.28 °W | Updated 10 days ago

Partly Cloudy
Partly Cloudy
13 °F
Feels Like 13 °F
N
3
Wind Variable Wind from NNW
Gusts 2 mph

Today
High -- | Low -- °F
--% Chance of Precip.
Yesterday
High -- | Low -- °F
Precip. -- in
6:43 AM 6:00 PM
Waxing Gibbous, 77% visible
Pressure 30.83 in
Visibility 10.0 miles
Clouds Clear
Dew Point 6 °F
Humidity 72%
Rainfall 0.12 in
Snow Depth Not available.
UV 0 out of 12
Pollen .60 out of 12
Air Quality Not available.
Flu Activity Not available.
METAR KFDK 281145Z 00000KT 10SM SKC M13/M17 A3083

More Conditions Fewer Conditions

Pressure 30.83 in
Visibility 10.0 miles
Clouds Clear
Dew Point 6 °F
Humidity 72%
Rainfall 0.12 in
Snow Depth Not available.
UV 0 out of 12
Pollen .60 out of 12
Air Quality Not available.
Flu Activity Not available.
METAR KFDK 281145Z 00000KT 10SM SKC M13/M17 A3083

More Conditions Fewer Conditions

10-Day Weather Forecast

Almanac

Astronomy

Feb. 28, 2015 Rise Set
Actual Time
Civil Twilight
Nautical Twilight
Astronomical Twilight
Moon
Length of Visible Light
Length of Day
Tomorrow will be .
, % of the Moon is Illuminated

Today's Extremes

State Highs State Lows

Community

WunderPhotos

Upload Photos

1,801,000 photos uploaded!

WunderBlogs® & News

Nearby

Air Quality

  Air Quality AQ Index Pollutant
Not available.

Snow Depth

Station Depth Elevation

Earthquake Activity

City Distance Mag. Time & Date
Minimum magnitude displayed is 2.5.

Coastal Water Temperatures

Place Temperature

Nearby Weather Stations